sensor_id;sensor_type;location;lat;lon;timestamp;P1;durP1;ratioP1;P2;durP2;ratioP2
41966;SDS011;27656;53.068;8.818;2023-07-24T00:00:00;4.67;;;4.00;;
41966;SDS011;27656;53.068;8.818;2023-07-24T00:02:26;6.50;;;3.87;;
41966;SDS011;27656;53.068;8.818;2023-07-24T00:04:53;9.60;;;3.57;;
41966;SDS011;27656;53.068;8.818;2023-07-24T00:07:20;5.07;;;3.60;;
41966;SDS011;27656;53.068;8.818;2023-07-24T00:09:46;5.90;;;3.90;;
41966;SDS011;27656;53.068;8.818;2023-07-24T00:12:13;6.47;;;3.73;;
41966;SDS011;27656;53.068;8.818;2023-07-24T00:14:39;4.37;;;3.60;;
41966;SDS011;27656;53.068;8.818;2023-07-24T00:17:06;5.77;;;3.50;;
41966;SDS011;27656;53.068;8.818;2023-07-24T00:19:33;4.77;;;3.57;;
41966;SDS011;27656;53.068;8.818;2023-07-24T00:21:59;4.53;;;3.47;;
41966;SDS011;27656;53.068;8.818;2023-07-24T00:24:26;5.13;;;3.93;;
41966;SDS011;27656;53.068;8.818;2023-07-24T00:26:53;6.67;;;3.40;;
41966;SDS011;27656;53.068;8.818;2023-07-24T00:29:19;7.80;;;3.40;;
41966;SDS011;27656;53.068;8.818;2023-07-24T00:31:46;3.93;;;3.17;;
41966;SDS011;27656;53.068;8.818;2023-07-24T00:34:12;3.90;;;3.50;;
41966;SDS011;27656;53.068;8.818;2023-07-24T00:36:39;4.70;;;3.67;;
41966;SDS011;27656;53.068;8.818;2023-07-24T00:39:05;4.10;;;3.70;;
41966;SDS011;27656;53.068;8.818;2023-07-24T00:41:32;4.47;;;3.47;;
41966;SDS011;27656;53.068;8.818;2023-07-24T00:43:58;3.93;;;2.97;;
41966;SDS011;27656;53.068;8.818;2023-07-24T00:46:25;4.37;;;3.30;;
41966;SDS011;27656;53.068;8.818;2023-07-24T00:48:51;5.03;;;3.30;;
41966;SDS011;27656;53.068;8.818;2023-07-24T00:51:18;4.27;;;3.40;;
41966;SDS011;27656;53.068;8.818;2023-07-24T00:53:45;3.70;;;3.10;;
41966;SDS011;27656;53.068;8.818;2023-07-24T00:56:13;4.40;;;3.50;;
41966;SDS011;27656;53.068;8.818;2023-07-24T00:58:40;6.93;;;3.43;;
41966;SDS011;27656;53.068;8.818;2023-07-24T01:01:06;4.77;;;3.30;;
41966;SDS011;27656;53.068;8.818;2023-07-24T01:03:34;6.07;;;3.27;;
41966;SDS011;27656;53.068;8.818;2023-07-24T01:06:01;6.40;;;3.40;;
41966;SDS011;27656;53.068;8.818;2023-07-24T01:08:28;5.27;;;3.30;;
41966;SDS011;27656;53.068;8.818;2023-07-24T01:10:56;5.33;;;3.30;;
41966;SDS011;27656;53.068;8.818;2023-07-24T01:13:25;6.77;;;3.37;;
41966;SDS011;27656;53.068;8.818;2023-07-24T01:15:56;4.73;;;3.50;;
41966;SDS011;27656;53.068;8.818;2023-07-24T01:18:27;7.13;;;2.80;;
41966;SDS011;27656;53.068;8.818;2023-07-24T01:20:55;5.40;;;3.13;;
41966;SDS011;27656;53.068;8.818;2023-07-24T01:23:29;5.63;;;3.13;;
41966;SDS011;27656;53.068;8.818;2023-07-24T01:26:04;5.33;;;3.23;;
41966;SDS011;27656;53.068;8.818;2023-07-24T01:28:31;4.93;;;3.40;;
41966;SDS011;27656;53.068;8.818;2023-07-24T01:30:57;6.53;;;3.97;;
41966;SDS011;27656;53.068;8.818;2023-07-24T01:33:24;5.60;;;4.10;;
41966;SDS011;27656;53.068;8.818;2023-07-24T01:35:53;5.43;;;3.67;;
41966;SDS011;27656;53.068;8.818;2023-07-24T01:38:21;4.20;;;3.13;;
41966;SDS011;27656;53.068;8.818;2023-07-24T01:40:51;5.33;;;3.80;;
41966;SDS011;27656;53.068;8.818;2023-07-24T01:43:19;4.23;;;3.43;;
41966;SDS011;27656;53.068;8.818;2023-07-24T01:45:45;4.83;;;3.70;;
41966;SDS011;27656;53.068;8.818;2023-07-24T01:48:12;6.30;;;3.90;;
41966;SDS011;27656;53.068;8.818;2023-07-24T01:50:38;6.50;;;3.70;;
41966;SDS011;27656;53.068;8.818;2023-07-24T01:53:05;7.33;;;4.60;;
41966;SDS011;27656;53.068;8.818;2023-07-24T01:55:31;7.33;;;3.90;;
41966;SDS011;27656;53.068;8.818;2023-07-24T01:57:58;4.63;;;3.53;;
41966;SDS011;27656;53.068;8.818;2023-07-24T02:00:24;7.47;;;3.60;;
41966;SDS011;27656;53.068;8.818;2023-07-24T02:02:51;5.10;;;3.90;;
41966;SDS011;27656;53.068;8.818;2023-07-24T02:05:17;5.87;;;4.27;;
41966;SDS011;27656;53.068;8.818;2023-07-24T02:07:44;6.60;;;4.07;;
41966;SDS011;27656;53.068;8.818;2023-07-24T02:10:10;7.53;;;4.33;;
41966;SDS011;27656;53.068;8.818;2023-07-24T02:12:37;6.90;;;4.20;;
41966;SDS011;27656;53.068;8.818;2023-07-24T02:15:03;6.33;;;4.17;;
41966;SDS011;27656;53.068;8.818;2023-07-24T02:17:30;5.83;;;4.23;;
41966;SDS011;27656;53.068;8.818;2023-07-24T02:19:56;6.70;;;4.20;;
41966;SDS011;27656;53.068;8.818;2023-07-24T02:22:23;7.10;;;4.67;;
41966;SDS011;27656;53.068;8.818;2023-07-24T02:24:50;8.03;;;4.40;;
41966;SDS011;27656;53.068;8.818;2023-07-24T02:27:27;4.97;;;4.00;;
41966;SDS011;27656;53.068;8.818;2023-07-24T02:29:54;6.17;;;4.10;;
41966;SDS011;27656;53.068;8.818;2023-07-24T02:32:21;5.00;;;4.13;;
41966;SDS011;27656;53.068;8.818;2023-07-24T02:34:50;7.73;;;4.00;;
41966;SDS011;27656;53.068;8.818;2023-07-24T02:37:17;5.67;;;4.17;;
41966;SDS011;27656;53.068;8.818;2023-07-24T02:39:44;4.97;;;4.43;;
41966;SDS011;27656;53.068;8.818;2023-07-24T02:42:10;5.57;;;4.47;;
41966;SDS011;27656;53.068;8.818;2023-07-24T02:44:37;7.07;;;4.70;;
41966;SDS011;27656;53.068;8.818;2023-07-24T02:47:04;6.40;;;4.50;;
41966;SDS011;27656;53.068;8.818;2023-07-24T02:49:31;7.73;;;4.90;;
41966;SDS011;27656;53.068;8.818;2023-07-24T02:51:58;5.63;;;4.40;;
41966;SDS011;27656;53.068;8.818;2023-07-24T02:54:25;8.03;;;4.60;;
41966;SDS011;27656;53.068;8.818;2023-07-24T02:56:52;8.20;;;4.60;;
41966;SDS011;27656;53.068;8.818;2023-07-24T02:59:18;6.97;;;4.53;;
41966;SDS011;27656;53.068;8.818;2023-07-24T03:01:45;6.27;;;4.50;;
41966;SDS011;27656;53.068;8.818;2023-07-24T03:04:11;7.57;;;5.10;;
41966;SDS011;27656;53.068;8.818;2023-07-24T03:06:39;7.00;;;5.40;;
41966;SDS011;27656;53.068;8.818;2023-07-24T03:09:05;6.80;;;4.77;;
41966;SDS011;27656;53.068;8.818;2023-07-24T03:11:32;8.57;;;4.83;;
41966;SDS011;27656;53.068;8.818;2023-07-24T03:13:58;7.17;;;4.83;;
41966;SDS011;27656;53.068;8.818;2023-07-24T03:16:25;8.37;;;5.33;;
41966;SDS011;27656;53.068;8.818;2023-07-24T03:18:51;6.40;;;4.80;;
41966;SDS011;27656;53.068;8.818;2023-07-24T03:21:18;6.23;;;5.00;;
41966;SDS011;27656;53.068;8.818;2023-07-24T03:23:45;6.57;;;4.60;;
41966;SDS011;27656;53.068;8.818;2023-07-24T03:26:12;5.63;;;4.90;;
41966;SDS011;27656;53.068;8.818;2023-07-24T03:28:38;7.10;;;5.07;;
41966;SDS011;27656;53.068;8.818;2023-07-24T03:31:05;7.37;;;5.33;;
41966;SDS011;27656;53.068;8.818;2023-07-24T03:33:31;8.50;;;5.37;;
41966;SDS011;27656;53.068;8.818;2023-07-24T03:35:58;6.77;;;5.30;;
41966;SDS011;27656;53.068;8.818;2023-07-24T03:38:24;8.83;;;5.03;;
41966;SDS011;27656;53.068;8.818;2023-07-24T03:40:51;9.50;;;5.53;;
41966;SDS011;27656;53.068;8.818;2023-07-24T03:43:17;7.30;;;5.20;;
41966;SDS011;27656;53.068;8.818;2023-07-24T03:45:44;8.13;;;5.03;;
41966;SDS011;27656;53.068;8.818;2023-07-24T03:48:10;8.03;;;5.37;;
41966;SDS011;27656;53.068;8.818;2023-07-24T03:50:37;6.77;;;5.03;;
41966;SDS011;27656;53.068;8.818;2023-07-24T03:53:03;7.90;;;5.17;;
41966;SDS011;27656;53.068;8.818;2023-07-24T03:55:30;6.23;;;4.63;;
41966;SDS011;27656;53.068;8.818;2023-07-24T03:57:56;6.70;;;4.77;;
41966;SDS011;27656;53.068;8.818;2023-07-24T04:00:23;8.07;;;5.07;;
41966;SDS011;27656;53.068;8.818;2023-07-24T04:02:49;7.10;;;4.80;;
41966;SDS011;27656;53.068;8.818;2023-07-24T04:05:16;8.87;;;4.60;;
41966;SDS011;27656;53.068;8.818;2023-07-24T04:07:43;7.20;;;4.97;;
41966;SDS011;27656;53.068;8.818;2023-07-24T04:10:09;6.47;;;4.33;;
41966;SDS011;27656;53.068;8.818;2023-07-24T04:12:36;6.63;;;4.60;;
41966;SDS011;27656;53.068;8.818;2023-07-24T04:15:03;4.77;;;3.97;;
41966;SDS011;27656;53.068;8.818;2023-07-24T04:17:29;5.93;;;4.00;;
41966;SDS011;27656;53.068;8.818;2023-07-24T04:19:56;7.17;;;3.97;;
41966;SDS011;27656;53.068;8.818;2023-07-24T04:22:23;4.87;;;3.83;;
41966;SDS011;27656;53.068;8.818;2023-07-24T04:24:49;10.30;;;3.97;;
41966;SDS011;27656;53.068;8.818;2023-07-24T04:27:16;5.33;;;4.00;;
41966;SDS011;27656;53.068;8.818;2023-07-24T04:29:42;4.83;;;3.90;;
41966;SDS011;27656;53.068;8.818;2023-07-24T04:32:09;4.63;;;3.50;;
41966;SDS011;27656;53.068;8.818;2023-07-24T04:34:35;5.63;;;3.87;;
41966;SDS011;27656;53.068;8.818;2023-07-24T04:37:02;4.17;;;2.87;;
41966;SDS011;27656;53.068;8.818;2023-07-24T04:39:28;4.60;;;2.90;;
41966;SDS011;27656;53.068;8.818;2023-07-24T04:41:55;5.47;;;2.97;;
41966;SDS011;27656;53.068;8.818;2023-07-24T04:44:21;3.87;;;3.27;;
41966;SDS011;27656;53.068;8.818;2023-07-24T04:46:47;3.70;;;2.90;;
41966;SDS011;27656;53.068;8.818;2023-07-24T04:49:14;3.33;;;3.03;;
41966;SDS011;27656;53.068;8.818;2023-07-24T04:51:40;6.73;;;2.97;;
41966;SDS011;27656;53.068;8.818;2023-07-24T04:54:07;4.70;;;2.87;;
41966;SDS011;27656;53.068;8.818;2023-07-24T04:56:33;3.10;;;2.80;;
41966;SDS011;27656;53.068;8.818;2023-07-24T04:59:00;3.80;;;2.73;;
41966;SDS011;27656;53.068;8.818;2023-07-24T05:01:26;3.03;;;2.43;;
41966;SDS011;27656;53.068;8.818;2023-07-24T05:03:53;3.00;;;2.40;;
41966;SDS011;27656;53.068;8.818;2023-07-24T05:06:19;4.87;;;2.90;;
41966;SDS011;27656;53.068;8.818;2023-07-24T05:08:46;4.13;;;2.60;;
41966;SDS011;27656;53.068;8.818;2023-07-24T05:11:12;3.57;;;2.80;;
41966;SDS011;27656;53.068;8.818;2023-07-24T05:13:39;3.33;;;2.87;;
41966;SDS011;27656;53.068;8.818;2023-07-24T05:16:05;3.10;;;2.70;;
41966;SDS011;27656;53.068;8.818;2023-07-24T05:18:32;4.20;;;2.77;;
41966;SDS011;27656;53.068;8.818;2023-07-24T05:20:58;3.80;;;3.00;;
41966;SDS011;27656;53.068;8.818;2023-07-24T05:23:25;3.07;;;2.77;;
41966;SDS011;27656;53.068;8.818;2023-07-24T05:26:01;5.73;;;2.60;;
41966;SDS011;27656;53.068;8.818;2023-07-24T05:28:29;3.70;;;2.70;;
41966;SDS011;27656;53.068;8.818;2023-07-24T05:31:00;3.53;;;2.70;;
41966;SDS011;27656;53.068;8.818;2023-07-24T05:33:28;5.87;;;2.40;;
41966;SDS011;27656;53.068;8.818;2023-07-24T05:36:02;3.47;;;2.60;;
41966;SDS011;27656;53.068;8.818;2023-07-24T05:38:29;5.30;;;2.60;;
41966;SDS011;27656;53.068;8.818;2023-07-24T05:43:26;3.77;;;2.60;;
41966;SDS011;27656;53.068;8.818;2023-07-24T05:45:54;3.53;;;2.67;;
41966;SDS011;27656;53.068;8.818;2023-07-24T05:48:21;3.40;;;2.70;;
41966;SDS011;27656;53.068;8.818;2023-07-24T05:50:48;3.10;;;2.30;;
41966;SDS011;27656;53.068;8.818;2023-07-24T05:53:15;2.80;;;2.47;;
41966;SDS011;27656;53.068;8.818;2023-07-24T05:55:42;3.00;;;2.60;;
41966;SDS011;27656;53.068;8.818;2023-07-24T05:58:09;3.40;;;2.80;;
41966;SDS011;27656;53.068;8.818;2023-07-24T06:00:36;3.60;;;2.90;;
41966;SDS011;27656;53.068;8.818;2023-07-24T06:03:03;3.37;;;2.60;;
41966;SDS011;27656;53.068;8.818;2023-07-24T06:05:33;4.37;;;2.90;;
41966;SDS011;27656;53.068;8.818;2023-07-24T06:08:00;3.73;;;3.10;;
41966;SDS011;27656;53.068;8.818;2023-07-24T06:10:26;4.83;;;2.87;;
41966;SDS011;27656;53.068;8.818;2023-07-24T06:12:52;5.07;;;3.23;;
41966;SDS011;27656;53.068;8.818;2023-07-24T06:15:19;5.10;;;3.87;;
41966;SDS011;27656;53.068;8.818;2023-07-24T06:17:46;4.83;;;4.27;;
41966;SDS011;27656;53.068;8.818;2023-07-24T06:20:12;4.70;;;3.87;;
41966;SDS011;27656;53.068;8.818;2023-07-24T06:22:39;5.70;;;4.13;;
41966;SDS011;27656;53.068;8.818;2023-07-24T06:25:05;4.80;;;4.20;;
41966;SDS011;27656;53.068;8.818;2023-07-24T06:27:32;4.73;;;4.23;;
41966;SDS011;27656;53.068;8.818;2023-07-24T06:29:59;5.80;;;4.63;;
41966;SDS011;27656;53.068;8.818;2023-07-24T06:32:39;4.83;;;4.10;;
41966;SDS011;27656;53.068;8.818;2023-07-24T06:35:06;4.40;;;4.00;;
41966;SDS011;27656;53.068;8.818;2023-07-24T06:37:33;5.00;;;4.50;;
41966;SDS011;27656;53.068;8.818;2023-07-24T06:39:59;4.50;;;3.80;;
41966;SDS011;27656;53.068;8.818;2023-07-24T06:42:26;5.40;;;4.53;;
41966;SDS011;27656;53.068;8.818;2023-07-24T06:44:52;4.77;;;4.13;;
41966;SDS011;27656;53.068;8.818;2023-07-24T06:47:19;8.63;;;4.60;;
41966;SDS011;27656;53.068;8.818;2023-07-24T06:49:45;4.83;;;4.13;;
41966;SDS011;27656;53.068;8.818;2023-07-24T06:52:13;5.97;;;4.13;;
41966;SDS011;27656;53.068;8.818;2023-07-24T06:54:39;4.77;;;4.10;;
41966;SDS011;27656;53.068;8.818;2023-07-24T06:57:06;7.10;;;4.17;;
41966;SDS011;27656;53.068;8.818;2023-07-24T06:59:32;4.60;;;4.10;;
41966;SDS011;27656;53.068;8.818;2023-07-24T07:01:59;5.30;;;4.50;;
41966;SDS011;27656;53.068;8.818;2023-07-24T07:04:25;6.00;;;4.83;;
41966;SDS011;27656;53.068;8.818;2023-07-24T07:06:52;5.90;;;4.20;;
41966;SDS011;27656;53.068;8.818;2023-07-24T07:09:18;7.37;;;4.07;;
41966;SDS011;27656;53.068;8.818;2023-07-24T07:11:45;7.40;;;5.00;;
41966;SDS011;27656;53.068;8.818;2023-07-24T07:14:11;7.67;;;5.47;;
41966;SDS011;27656;53.068;8.818;2023-07-24T07:16:39;6.27;;;5.33;;
41966;SDS011;27656;53.068;8.818;2023-07-24T07:19:05;7.90;;;5.00;;
41966;SDS011;27656;53.068;8.818;2023-07-24T07:21:32;8.43;;;4.87;;
41966;SDS011;27656;53.068;8.818;2023-07-24T07:23:58;6.70;;;5.53;;
41966;SDS011;27656;53.068;8.818;2023-07-24T07:26:25;6.63;;;5.03;;
41966;SDS011;27656;53.068;8.818;2023-07-24T07:28:51;5.93;;;5.33;;
41966;SDS011;27656;53.068;8.818;2023-07-24T07:31:18;6.87;;;5.57;;
41966;SDS011;27656;53.068;8.818;2023-07-24T07:33:44;9.20;;;5.77;;
41966;SDS011;27656;53.068;8.818;2023-07-24T07:36:11;7.47;;;6.20;;
41966;SDS011;27656;53.068;8.818;2023-07-24T07:38:38;6.97;;;5.77;;
41966;SDS011;27656;53.068;8.818;2023-07-24T07:41:06;8.73;;;6.17;;
41966;SDS011;27656;53.068;8.818;2023-07-24T07:43:32;6.37;;;5.20;;
41966;SDS011;27656;53.068;8.818;2023-07-24T07:45:59;6.03;;;5.43;;
41966;SDS011;27656;53.068;8.818;2023-07-24T07:48:25;10.77;;;6.03;;
41966;SDS011;27656;53.068;8.818;2023-07-24T07:50:52;6.30;;;5.70;;
41966;SDS011;27656;53.068;8.818;2023-07-24T07:53:18;10.03;;;5.90;;
41966;SDS011;27656;53.068;8.818;2023-07-24T07:55:45;7.30;;;5.17;;
41966;SDS011;27656;53.068;8.818;2023-07-24T07:58:11;6.00;;;5.40;;
41966;SDS011;27656;53.068;8.818;2023-07-24T08:00:38;6.10;;;5.50;;
41966;SDS011;27656;53.068;8.818;2023-07-24T08:03:06;7.27;;;5.53;;
41966;SDS011;27656;53.068;8.818;2023-07-24T08:05:32;7.37;;;5.70;;
41966;SDS011;27656;53.068;8.818;2023-07-24T08:07:59;6.73;;;5.67;;
41966;SDS011;27656;53.068;8.818;2023-07-24T08:10:25;6.43;;;5.73;;
41966;SDS011;27656;53.068;8.818;2023-07-24T08:12:52;7.53;;;6.17;;
41966;SDS011;27656;53.068;8.818;2023-07-24T08:15:18;6.93;;;5.77;;
41966;SDS011;27656;53.068;8.818;2023-07-24T08:17:45;6.53;;;5.43;;
41966;SDS011;27656;53.068;8.818;2023-07-24T08:20:11;7.23;;;6.10;;
41966;SDS011;27656;53.068;8.818;2023-07-24T08:22:38;5.70;;;5.20;;
41966;SDS011;27656;53.068;8.818;2023-07-24T08:25:04;9.87;;;5.33;;
41966;SDS011;27656;53.068;8.818;2023-07-24T08:27:31;6.07;;;5.47;;
41966;SDS011;27656;53.068;8.818;2023-07-24T08:30:01;7.07;;;5.43;;
41966;SDS011;27656;53.068;8.818;2023-07-24T08:32:27;5.83;;;5.00;;
41966;SDS011;27656;53.068;8.818;2023-07-24T08:34:54;6.20;;;5.13;;
41966;SDS011;27656;53.068;8.818;2023-07-24T08:37:21;6.10;;;5.20;;
41966;SDS011;27656;53.068;8.818;2023-07-24T08:39:47;6.47;;;5.77;;
41966;SDS011;27656;53.068;8.818;2023-07-24T08:42:14;6.33;;;5.73;;
41966;SDS011;27656;53.068;8.818;2023-07-24T08:44:40;6.60;;;5.90;;
41966;SDS011;27656;53.068;8.818;2023-07-24T08:47:11;7.43;;;5.43;;
41966;SDS011;27656;53.068;8.818;2023-07-24T08:49:40;5.63;;;5.10;;
41966;SDS011;27656;53.068;8.818;2023-07-24T08:52:08;5.93;;;5.10;;
41966;SDS011;27656;53.068;8.818;2023-07-24T08:54:39;6.83;;;6.00;;
41966;SDS011;27656;53.068;8.818;2023-07-24T08:57:06;6.13;;;5.53;;
41966;SDS011;27656;53.068;8.818;2023-07-24T08:59:34;8.63;;;6.17;;
41966;SDS011;27656;53.068;8.818;2023-07-24T09:02:00;6.43;;;5.50;;
41966;SDS011;27656;53.068;8.818;2023-07-24T09:04:28;7.03;;;5.83;;
41966;SDS011;27656;53.068;8.818;2023-07-24T09:06:56;6.67;;;5.23;;
41966;SDS011;27656;53.068;8.818;2023-07-24T09:09:22;7.27;;;5.87;;
41966;SDS011;27656;53.068;8.818;2023-07-24T09:11:50;8.23;;;5.97;;
41966;SDS011;27656;53.068;8.818;2023-07-24T09:14:24;5.50;;;5.00;;
41966;SDS011;27656;53.068;8.818;2023-07-24T09:19:36;7.47;;;5.23;;
41966;SDS011;27656;53.068;8.818;2023-07-24T09:22:07;6.63;;;5.20;;
41966;SDS011;27656;53.068;8.818;2023-07-24T09:24:53;6.80;;;4.83;;
41966;SDS011;27656;53.068;8.818;2023-07-24T09:27:24;6.43;;;5.60;;
41966;SDS011;27656;53.068;8.818;2023-07-24T09:29:51;6.63;;;4.50;;
41966;SDS011;27656;53.068;8.818;2023-07-24T09:32:21;5.30;;;4.53;;
41966;SDS011;27656;53.068;8.818;2023-07-24T09:34:49;4.30;;;3.90;;
41966;SDS011;27656;53.068;8.818;2023-07-24T09:37:23;5.10;;;3.80;;
41966;SDS011;27656;53.068;8.818;2023-07-24T09:39:53;3.47;;;3.10;;
41966;SDS011;27656;53.068;8.818;2023-07-24T09:42:33;2.73;;;2.53;;
41966;SDS011;27656;53.068;8.818;2023-07-24T09:45:18;3.20;;;2.90;;
41966;SDS011;27656;53.068;8.818;2023-07-24T09:47:48;4.93;;;3.03;;
41966;SDS011;27656;53.068;8.818;2023-07-24T09:50:24;3.27;;;2.50;;
41966;SDS011;27656;53.068;8.818;2023-07-24T09:52:50;3.70;;;2.63;;
41966;SDS011;27656;53.068;8.818;2023-07-24T09:55:25;4.67;;;3.10;;
41966;SDS011;27656;53.068;8.818;2023-07-24T09:57:57;4.37;;;3.33;;
41966;SDS011;27656;53.068;8.818;2023-07-24T10:00:25;4.07;;;3.27;;
41966;SDS011;27656;53.068;8.818;2023-07-24T10:02:51;4.13;;;3.73;;
41966;SDS011;27656;53.068;8.818;2023-07-24T10:05:18;3.93;;;3.30;;
41966;SDS011;27656;53.068;8.818;2023-07-24T10:07:45;5.50;;;3.72;;
41966;SDS011;27656;53.068;8.818;2023-07-24T10:10:12;4.18;;;3.80;;
41966;SDS011;27656;53.068;8.818;2023-07-24T10:12:38;23.30;;;17.20;;
41966;SDS011;27656;53.068;8.818;2023-07-24T10:15:05;11.23;;;4.35;;
41966;SDS011;27656;53.068;8.818;2023-07-24T10:17:39;5.93;;;3.90;;
41966;SDS011;27656;53.068;8.818;2023-07-24T10:20:08;6.10;;;3.80;;
41966;SDS011;27656;53.068;8.818;2023-07-24T10:22:35;4.57;;;3.50;;
41966;SDS011;27656;53.068;8.818;2023-07-24T10:25:04;3.95;;;3.55;;
41966;SDS011;27656;53.068;8.818;2023-07-24T10:27:30;5.68;;;3.53;;
41966;SDS011;27656;53.068;8.818;2023-07-24T10:29:58;5.32;;;3.35;;
41966;SDS011;27656;53.068;8.818;2023-07-24T10:32:25;3.72;;;3.10;;
41966;SDS011;27656;53.068;8.818;2023-07-24T10:34:56;5.38;;;3.67;;
41966;SDS011;27656;53.068;8.818;2023-07-24T10:37:34;4.13;;;3.00;;
41966;SDS011;27656;53.068;8.818;2023-07-24T10:40:02;4.03;;;3.17;;
41966;SDS011;27656;53.068;8.818;2023-07-24T10:42:30;4.05;;;3.47;;
41966;SDS011;27656;53.068;8.818;2023-07-24T10:45:03;4.63;;;3.33;;
41966;SDS011;27656;53.068;8.818;2023-07-24T10:47:31;5.07;;;3.35;;
41966;SDS011;27656;53.068;8.818;2023-07-24T10:49:57;4.95;;;3.60;;
41966;SDS011;27656;53.068;8.818;2023-07-24T10:52:27;5.28;;;3.50;;
41966;SDS011;27656;53.068;8.818;2023-07-24T10:54:55;4.90;;;3.75;;
41966;SDS011;27656;53.068;8.818;2023-07-24T10:57:25;4.05;;;3.58;;
41966;SDS011;27656;53.068;8.818;2023-07-24T10:59:53;4.15;;;3.75;;
41966;SDS011;27656;53.068;8.818;2023-07-24T11:02:19;4.75;;;4.05;;
41966;SDS011;27656;53.068;8.818;2023-07-24T11:04:46;6.47;;;3.88;;
41966;SDS011;27656;53.068;8.818;2023-07-24T11:07:13;6.53;;;4.13;;
41966;SDS011;27656;53.068;8.818;2023-07-24T11:09:40;5.38;;;3.80;;
41966;SDS011;27656;53.068;8.818;2023-07-24T11:14:50;4.72;;;3.97;;
41966;SDS011;27656;53.068;8.818;2023-07-24T11:17:17;5.28;;;4.28;;
41966;SDS011;27656;53.068;8.818;2023-07-24T11:19:44;4.78;;;4.32;;
41966;SDS011;27656;53.068;8.818;2023-07-24T11:22:11;5.78;;;4.43;;
41966;SDS011;27656;53.068;8.818;2023-07-24T11:24:45;5.15;;;4.65;;
41966;SDS011;27656;53.068;8.818;2023-07-24T11:27:16;5.10;;;4.15;;
41966;SDS011;27656;53.068;8.818;2023-07-24T11:29:49;5.63;;;4.47;;
41966;SDS011;27656;53.068;8.818;2023-07-24T11:32:19;6.25;;;4.28;;
41966;SDS011;27656;53.068;8.818;2023-07-24T11:34:46;5.82;;;4.80;;
41966;SDS011;27656;53.068;8.818;2023-07-24T11:37:14;6.43;;;5.82;;
41966;SDS011;27656;53.068;8.818;2023-07-24T11:39:41;5.40;;;4.88;;
41966;SDS011;27656;53.068;8.818;2023-07-24T11:42:08;5.18;;;4.68;;
41966;SDS011;27656;53.068;8.818;2023-07-24T11:44:34;6.03;;;5.38;;
41966;SDS011;27656;53.068;8.818;2023-07-24T11:47:04;6.05;;;5.10;;
41966;SDS011;27656;53.068;8.818;2023-07-24T11:49:32;6.07;;;5.20;;
41966;SDS011;27656;53.068;8.818;2023-07-24T11:51:59;5.97;;;5.38;;
41966;SDS011;27656;53.068;8.818;2023-07-24T11:54:33;7.88;;;5.15;;
41966;SDS011;27656;53.068;8.818;2023-07-24T11:57:00;7.60;;;5.20;;
41966;SDS011;27656;53.068;8.818;2023-07-24T11:59:27;7.05;;;5.20;;
41966;SDS011;27656;53.068;8.818;2023-07-24T12:01:53;7.07;;;5.20;;
41966;SDS011;27656;53.068;8.818;2023-07-24T12:04:20;6.32;;;5.70;;
41966;SDS011;27656;53.068;8.818;2023-07-24T12:06:46;6.00;;;5.40;;
41966;SDS011;27656;53.068;8.818;2023-07-24T12:09:13;7.90;;;5.80;;
41966;SDS011;27656;53.068;8.818;2023-07-24T12:11:43;9.38;;;5.65;;
41966;SDS011;27656;53.068;8.818;2023-07-24T12:14:12;6.10;;;5.50;;
41966;SDS011;27656;53.068;8.818;2023-07-24T12:16:40;6.90;;;5.40;;
41966;SDS011;27656;53.068;8.818;2023-07-24T12:19:06;7.47;;;5.97;;
41966;SDS011;27656;53.068;8.818;2023-07-24T12:21:33;7.07;;;5.75;;
41966;SDS011;27656;53.068;8.818;2023-07-24T12:24:01;8.27;;;5.40;;
41966;SDS011;27656;53.068;8.818;2023-07-24T12:26:27;7.10;;;5.45;;
41966;SDS011;27656;53.068;8.818;2023-07-24T12:28:54;6.57;;;5.30;;
41966;SDS011;27656;53.068;8.818;2023-07-24T12:31:21;6.95;;;5.68;;
41966;SDS011;27656;53.068;8.818;2023-07-24T12:33:47;6.30;;;5.70;;
41966;SDS011;27656;53.068;8.818;2023-07-24T12:36:14;8.93;;;6.00;;
41966;SDS011;27656;53.068;8.818;2023-07-24T12:38:40;6.22;;;5.45;;
41966;SDS011;27656;53.068;8.818;2023-07-24T12:41:07;6.18;;;5.53;;
41966;SDS011;27656;53.068;8.818;2023-07-24T12:43:33;8.52;;;5.88;;
41966;SDS011;27656;53.068;8.818;2023-07-24T12:46:00;8.07;;;5.97;;
41966;SDS011;27656;53.068;8.818;2023-07-24T12:48:26;9.38;;;5.38;;
41966;SDS011;27656;53.068;8.818;2023-07-24T12:50:53;5.70;;;4.82;;
41966;SDS011;27656;53.068;8.818;2023-07-24T12:53:20;5.28;;;4.75;;
41966;SDS011;27656;53.068;8.818;2023-07-24T12:55:53;5.47;;;4.70;;
41966;SDS011;27656;53.068;8.818;2023-07-24T12:58:19;7.53;;;5.18;;
41966;SDS011;27656;53.068;8.818;2023-07-24T13:00:46;6.47;;;5.22;;
41966;SDS011;27656;53.068;8.818;2023-07-24T13:03:13;8.77;;;4.95;;
41966;SDS011;27656;53.068;8.818;2023-07-24T13:05:39;7.40;;;5.00;;
41966;SDS011;27656;53.068;8.818;2023-07-24T13:08:06;6.47;;;4.90;;
41966;SDS011;27656;53.068;8.818;2023-07-24T13:10:32;6.00;;;4.88;;
41966;SDS011;27656;53.068;8.818;2023-07-24T13:12:59;7.32;;;5.00;;
41966;SDS011;27656;53.068;8.818;2023-07-24T13:15:27;5.43;;;4.40;;
41966;SDS011;27656;53.068;8.818;2023-07-24T13:17:55;6.18;;;4.68;;
41966;SDS011;27656;53.068;8.818;2023-07-24T13:20:22;6.03;;;4.93;;
41966;SDS011;27656;53.068;8.818;2023-07-24T13:22:48;5.72;;;4.40;;
41966;SDS011;27656;53.068;8.818;2023-07-24T13:25:15;5.93;;;4.30;;
41966;SDS011;27656;53.068;8.818;2023-07-24T13:27:41;5.43;;;4.50;;
41966;SDS011;27656;53.068;8.818;2023-07-24T13:30:08;7.03;;;4.55;;
41966;SDS011;27656;53.068;8.818;2023-07-24T13:32:34;4.90;;;4.00;;
41966;SDS011;27656;53.068;8.818;2023-07-24T13:35:01;5.90;;;4.18;;
41966;SDS011;27656;53.068;8.818;2023-07-24T13:37:28;6.95;;;4.20;;
41966;SDS011;27656;53.068;8.818;2023-07-24T13:39:54;8.48;;;4.10;;
41966;SDS011;27656;53.068;8.818;2023-07-24T13:42:20;6.55;;;4.28;;
41966;SDS011;27656;53.068;8.818;2023-07-24T13:44:47;7.97;;;4.57;;
41966;SDS011;27656;53.068;8.818;2023-07-24T13:47:14;6.22;;;4.35;;
41966;SDS011;27656;53.068;8.818;2023-07-24T13:49:40;8.30;;;3.90;;
41966;SDS011;27656;53.068;8.818;2023-07-24T13:52:06;6.70;;;4.00;;
41966;SDS011;27656;53.068;8.818;2023-07-24T13:54:33;5.78;;;3.92;;
41966;SDS011;27656;53.068;8.818;2023-07-24T13:56:59;6.30;;;3.95;;
41966;SDS011;27656;53.068;8.818;2023-07-24T13:59:26;4.95;;;3.75;;
41966;SDS011;27656;53.068;8.818;2023-07-24T14:01:52;7.25;;;4.00;;
41966;SDS011;27656;53.068;8.818;2023-07-24T14:04:19;8.68;;;3.65;;
41966;SDS011;27656;53.068;8.818;2023-07-24T14:06:46;5.63;;;3.72;;
41966;SDS011;27656;53.068;8.818;2023-07-24T14:09:12;4.40;;;3.65;;
41966;SDS011;27656;53.068;8.818;2023-07-24T14:11:38;4.53;;;3.88;;
41966;SDS011;27656;53.068;8.818;2023-07-24T14:14:05;4.65;;;3.55;;
41966;SDS011;27656;53.068;8.818;2023-07-24T14:16:31;7.10;;;3.75;;
41966;SDS011;27656;53.068;8.818;2023-07-24T14:18:58;7.00;;;3.85;;
41966;SDS011;27656;53.068;8.818;2023-07-24T14:21:24;7.03;;;3.95;;
41966;SDS011;27656;53.068;8.818;2023-07-24T14:23:51;6.90;;;3.90;;
41966;SDS011;27656;53.068;8.818;2023-07-24T14:26:17;6.55;;;4.43;;
41966;SDS011;27656;53.068;8.818;2023-07-24T14:28:44;7.10;;;4.00;;
41966;SDS011;27656;53.068;8.818;2023-07-24T14:31:10;4.50;;;3.58;;
41966;SDS011;27656;53.068;8.818;2023-07-24T14:33:37;4.25;;;3.63;;
41966;SDS011;27656;53.068;8.818;2023-07-24T14:36:03;5.00;;;3.53;;
41966;SDS011;27656;53.068;8.818;2023-07-24T14:38:30;6.72;;;3.50;;
41966;SDS011;27656;53.068;8.818;2023-07-24T14:40:56;4.10;;;3.45;;
41966;SDS011;27656;53.068;8.818;2023-07-24T14:43:23;4.03;;;3.22;;
41966;SDS011;27656;53.068;8.818;2023-07-24T14:45:49;4.93;;;3.42;;
41966;SDS011;27656;53.068;8.818;2023-07-24T14:48:16;3.83;;;3.10;;
41966;SDS011;27656;53.068;8.818;2023-07-24T14:50:42;7.30;;;3.50;;
41966;SDS011;27656;53.068;8.818;2023-07-24T14:53:09;4.80;;;3.28;;
41966;SDS011;27656;53.068;8.818;2023-07-24T14:55:35;6.00;;;3.45;;